EDDH/HAM METAR and TAF weather

Enter ICAO airport designator
Station Type Date Time Source
EDDH METAR 2017/06/25 23:50 UTC NOAA

EDDH 252350Z 24006KT 9999 -RA FEW014 BKN060 14/12 Q1009 NOSIG


Station Type Date Time Source
EDDH Decoded METAR 2017/06/25 23:50 UTC NOAA

Hamburg-Fuhlsbuettel, Germany (EDDH) 53-38N 010-00E 15M
Jun 25, 2017 - 07:50 PM EDT / 2017.06.25 2350 UTC
Wind: from the WSW (240 degrees) at 7 MPH (6 KT):0
Visibility: greater than 7 mile(s):0
Sky conditions: mostly cloudy
Weather: light rain
Temperature: 57 F (14 C)
Dew Point: 53 F (12 C)
Relative Humidity: 87%
Pressure (altimeter): 29.80 in. Hg (1009 hPa)
ob: EDDH 252350Z 24006KT 9999 -RA FEW014 BKN060 14/12 Q1009 NOSIG
cycle: 0

Station Type Date Time Source
EDDH TAF 2017/06/25 18:27 UTC NOAA

TAF EDDH 251700Z 2518/2624 26010KT 9999 BKN030
TEMPO 2521/2603 3000 -RADZ BKN008
BECMG 2607/2609 28015G25KT
BECMG 2618/2620 26008KT


Example: see airport list